sensor_id;sensor_type;location;lat;lon;timestamp;P1;durP1;ratioP1;P2;durP2;ratioP2
7573;SDS011;3828;48.922;9.116;2022-07-12T00:02:18;3.10;;;2.77;;
7573;SDS011;3828;48.922;9.116;2022-07-12T00:04:45;3.77;;;3.00;;
7573;SDS011;3828;48.922;9.116;2022-07-12T00:07:13;5.30;;;2.57;;
7573;SDS011;3828;48.922;9.116;2022-07-12T00:09:39;2.67;;;2.47;;
7573;SDS011;3828;48.922;9.116;2022-07-12T00:12:06;2.67;;;2.40;;
7573;SDS011;3828;48.922;9.116;2022-07-12T00:14:33;2.43;;;2.33;;
7573;SDS011;3828;48.922;9.116;2022-07-12T00:17:00;2.87;;;2.67;;
7573;SDS011;3828;48.922;9.116;2022-07-12T00:19:29;2.70;;;2.50;;
7573;SDS011;3828;48.922;9.116;2022-07-12T00:21:56;2.93;;;2.50;;
7573;SDS011;3828;48.922;9.116;2022-07-12T00:24:24;2.33;;;2.23;;
7573;SDS011;3828;48.922;9.116;2022-07-12T00:26:51;2.50;;;2.30;;
7573;SDS011;3828;48.922;9.116;2022-07-12T00:29:18;2.57;;;2.40;;
7573;SDS011;3828;48.922;9.116;2022-07-12T00:31:44;2.50;;;2.33;;
7573;SDS011;3828;48.922;9.116;2022-07-12T00:34:11;2.53;;;2.33;;
7573;SDS011;3828;48.922;9.116;2022-07-12T00:36:38;1.90;;;1.80;;
7573;SDS011;3828;48.922;9.116;2022-07-12T00:39:04;2.30;;;2.20;;
7573;SDS011;3828;48.922;9.116;2022-07-12T00:41:32;2.20;;;2.10;;
7573;SDS011;3828;48.922;9.116;2022-07-12T00:43:59;1.90;;;1.80;;
7573;SDS011;3828;48.922;9.116;2022-07-12T00:46:26;2.10;;;2.00;;
7573;SDS011;3828;48.922;9.116;2022-07-12T00:48:53;2.17;;;2.07;;
7573;SDS011;3828;48.922;9.116;2022-07-12T00:51:20;2.50;;;2.30;;
7573;SDS011;3828;48.922;9.116;2022-07-12T00:53:47;2.27;;;2.17;;
7573;SDS011;3828;48.922;9.116;2022-07-12T00:56:15;2.30;;;2.10;;
7573;SDS011;3828;48.922;9.116;2022-07-12T00:58:43;2.20;;;2.00;;
7573;SDS011;3828;48.922;9.116;2022-07-12T01:01:10;2.20;;;2.10;;
7573;SDS011;3828;48.922;9.116;2022-07-12T01:03:38;1.73;;;1.63;;
7573;SDS011;3828;48.922;9.116;2022-07-12T01:06:05;2.00;;;1.90;;
7573;SDS011;3828;48.922;9.116;2022-07-12T01:08:33;2.07;;;1.97;;
7573;SDS011;3828;48.922;9.116;2022-07-12T01:11:00;2.30;;;2.20;;
7573;SDS011;3828;48.922;9.116;2022-07-12T01:13:28;2.47;;;2.27;;
7573;SDS011;3828;48.922;9.116;2022-07-12T01:15:57;2.00;;;1.90;;
7573;SDS011;3828;48.922;9.116;2022-07-12T01:18:24;2.53;;;1.63;;
7573;SDS011;3828;48.922;9.116;2022-07-12T01:20:52;2.57;;;2.37;;
7573;SDS011;3828;48.922;9.116;2022-07-12T01:23:20;2.00;;;1.90;;
7573;SDS011;3828;48.922;9.116;2022-07-12T01:25:48;2.03;;;1.93;;
7573;SDS011;3828;48.922;9.116;2022-07-12T01:28:16;2.27;;;2.17;;
7573;SDS011;3828;48.922;9.116;2022-07-12T01:30:43;2.13;;;2.03;;
7573;SDS011;3828;48.922;9.116;2022-07-12T01:33:10;2.37;;;2.27;;
7573;SDS011;3828;48.922;9.116;2022-07-12T01:35:37;2.13;;;2.03;;
7573;SDS011;3828;48.922;9.116;2022-07-12T01:38:04;2.30;;;2.10;;
7573;SDS011;3828;48.922;9.116;2022-07-12T01:40:32;2.07;;;1.97;;
7573;SDS011;3828;48.922;9.116;2022-07-12T01:43:01;2.30;;;2.20;;
7573;SDS011;3828;48.922;9.116;2022-07-12T01:45:27;2.57;;;2.10;;
7573;SDS011;3828;48.922;9.116;2022-07-12T01:47:55;2.67;;;2.47;;
7573;SDS011;3828;48.922;9.116;2022-07-12T01:50:23;2.50;;;2.30;;
7573;SDS011;3828;48.922;9.116;2022-07-12T01:52:50;4.17;;;2.20;;
7573;SDS011;3828;48.922;9.116;2022-07-12T01:55:18;2.20;;;2.10;;
7573;SDS011;3828;48.922;9.116;2022-07-12T01:57:46;2.37;;;2.17;;
7573;SDS011;3828;48.922;9.116;2022-07-12T02:00:13;2.33;;;2.10;;
7573;SDS011;3828;48.922;9.116;2022-07-12T02:02:40;2.50;;;2.30;;
7573;SDS011;3828;48.922;9.116;2022-07-12T02:05:07;2.30;;;2.20;;
7573;SDS011;3828;48.922;9.116;2022-07-12T02:07:34;2.43;;;2.27;;
7573;SDS011;3828;48.922;9.116;2022-07-12T02:10:03;2.47;;;2.23;;
7573;SDS011;3828;48.922;9.116;2022-07-12T02:12:32;2.73;;;2.47;;
7573;SDS011;3828;48.922;9.116;2022-07-12T02:15:00;2.67;;;2.47;;
7573;SDS011;3828;48.922;9.116;2022-07-12T02:17:27;2.67;;;2.47;;
7573;SDS011;3828;48.922;9.116;2022-07-12T02:19:54;3.00;;;2.80;;
7573;SDS011;3828;48.922;9.116;2022-07-12T02:22:21;2.93;;;2.60;;
7573;SDS011;3828;48.922;9.116;2022-07-12T02:24:47;2.97;;;2.77;;
7573;SDS011;3828;48.922;9.116;2022-07-12T02:27:15;2.80;;;2.60;;
7573;SDS011;3828;48.922;9.116;2022-07-12T02:29:41;2.87;;;2.60;;
7573;SDS011;3828;48.922;9.116;2022-07-12T02:32:10;2.67;;;2.43;;
7573;SDS011;3828;48.922;9.116;2022-07-12T02:34:37;2.50;;;2.40;;
7573;SDS011;3828;48.922;9.116;2022-07-12T02:37:03;2.13;;;2.03;;
7573;SDS011;3828;48.922;9.116;2022-07-12T02:39:30;2.63;;;2.47;;
7573;SDS011;3828;48.922;9.116;2022-07-12T02:41:57;2.90;;;2.70;;
7573;SDS011;3828;48.922;9.116;2022-07-12T02:44:24;2.77;;;2.57;;
7573;SDS011;3828;48.922;9.116;2022-07-12T02:46:51;3.47;;;2.80;;
7573;SDS011;3828;48.922;9.116;2022-07-12T02:49:19;3.13;;;2.93;;
7573;SDS011;3828;48.922;9.116;2022-07-12T02:51:49;2.97;;;2.70;;
7573;SDS011;3828;48.922;9.116;2022-07-12T02:54:16;2.97;;;2.77;;
7573;SDS011;3828;48.922;9.116;2022-07-12T02:56:42;3.20;;;3.00;;
7573;SDS011;3828;48.922;9.116;2022-07-12T02:59:09;3.83;;;2.97;;
7573;SDS011;3828;48.922;9.116;2022-07-12T03:01:36;3.03;;;2.83;;
7573;SDS011;3828;48.922;9.116;2022-07-12T03:04:03;3.10;;;2.80;;
7573;SDS011;3828;48.922;9.116;2022-07-12T03:06:31;3.20;;;3.00;;
7573;SDS011;3828;48.922;9.116;2022-07-12T03:08:58;2.47;;;2.37;;
7573;SDS011;3828;48.922;9.116;2022-07-12T03:11:25;2.60;;;2.50;;
7573;SDS011;3828;48.922;9.116;2022-07-12T03:13:51;2.13;;;2.03;;
7573;SDS011;3828;48.922;9.116;2022-07-12T03:16:18;2.50;;;2.40;;
7573;SDS011;3828;48.922;9.116;2022-07-12T03:18:45;2.93;;;2.73;;
7573;SDS011;3828;48.922;9.116;2022-07-12T03:21:12;2.47;;;2.37;;
7573;SDS011;3828;48.922;9.116;2022-07-12T03:23:40;3.07;;;2.87;;
7573;SDS011;3828;48.922;9.116;2022-07-12T03:26:08;2.90;;;2.70;;
7573;SDS011;3828;48.922;9.116;2022-07-12T03:28:35;3.27;;;2.97;;
7573;SDS011;3828;48.922;9.116;2022-07-12T03:31:01;2.80;;;2.50;;
7573;SDS011;3828;48.922;9.116;2022-07-12T03:33:28;2.27;;;2.17;;
7573;SDS011;3828;48.922;9.116;2022-07-12T03:35:56;2.63;;;2.47;;
7573;SDS011;3828;48.922;9.116;2022-07-12T03:38:23;2.47;;;2.27;;
7573;SDS011;3828;48.922;9.116;2022-07-12T03:40:51;2.40;;;2.27;;
7573;SDS011;3828;48.922;9.116;2022-07-12T03:43:18;2.40;;;2.20;;
7573;SDS011;3828;48.922;9.116;2022-07-12T03:45:44;2.87;;;2.67;;
7573;SDS011;3828;48.922;9.116;2022-07-12T03:48:11;2.43;;;2.33;;
7573;SDS011;3828;48.922;9.116;2022-07-12T03:50:38;2.97;;;2.33;;
7573;SDS011;3828;48.922;9.116;2022-07-12T03:53:05;2.77;;;2.57;;
7573;SDS011;3828;48.922;9.116;2022-07-12T03:55:32;2.40;;;2.30;;
7573;SDS011;3828;48.922;9.116;2022-07-12T03:58:00;2.37;;;2.17;;
7573;SDS011;3828;48.922;9.116;2022-07-12T04:00:27;2.50;;;2.30;;
7573;SDS011;3828;48.922;9.116;2022-07-12T04:02:54;2.83;;;2.50;;
7573;SDS011;3828;48.922;9.116;2022-07-12T04:05:24;2.30;;;2.10;;
7573;SDS011;3828;48.922;9.116;2022-07-12T04:07:51;2.80;;;2.60;;
7573;SDS011;3828;48.922;9.116;2022-07-12T04:10:19;2.53;;;2.33;;
7573;SDS011;3828;48.922;9.116;2022-07-12T04:12:46;3.77;;;2.77;;
7573;SDS011;3828;48.922;9.116;2022-07-12T04:15:15;2.63;;;2.40;;
7573;SDS011;3828;48.922;9.116;2022-07-12T04:17:41;2.53;;;2.27;;
7573;SDS011;3828;48.922;9.116;2022-07-12T04:20:08;2.70;;;2.50;;
7573;SDS011;3828;48.922;9.116;2022-07-12T04:22:36;2.60;;;2.40;;
7573;SDS011;3828;48.922;9.116;2022-07-12T04:25:03;3.13;;;2.17;;
7573;SDS011;3828;48.922;9.116;2022-07-12T04:27:31;3.23;;;2.97;;
7573;SDS011;3828;48.922;9.116;2022-07-12T04:29:58;7.13;;;5.50;;
7573;SDS011;3828;48.922;9.116;2022-07-12T04:32:26;6.10;;;5.50;;
7573;SDS011;3828;48.922;9.116;2022-07-12T04:34:53;3.13;;;2.80;;
7573;SDS011;3828;48.922;9.116;2022-07-12T04:37:20;2.93;;;2.50;;
7573;SDS011;3828;48.922;9.116;2022-07-12T04:39:47;4.97;;;2.30;;
7573;SDS011;3828;48.922;9.116;2022-07-12T04:42:13;2.37;;;2.17;;
7573;SDS011;3828;48.922;9.116;2022-07-12T04:44:41;2.20;;;2.00;;
7573;SDS011;3828;48.922;9.116;2022-07-12T04:47:07;2.27;;;2.10;;
7573;SDS011;3828;48.922;9.116;2022-07-12T04:49:36;2.67;;;2.47;;
7573;SDS011;3828;48.922;9.116;2022-07-12T04:52:04;2.33;;;2.23;;
7573;SDS011;3828;48.922;9.116;2022-07-12T04:54:31;2.63;;;2.43;;
7573;SDS011;3828;48.922;9.116;2022-07-12T04:56:57;4.30;;;3.93;;
7573;SDS011;3828;48.922;9.116;2022-07-12T04:59:24;10.07;;;9.03;;
7573;SDS011;3828;48.922;9.116;2022-07-12T05:01:51;5.20;;;4.70;;
7573;SDS011;3828;48.922;9.116;2022-07-12T05:04:18;3.37;;;3.10;;
7573;SDS011;3828;48.922;9.116;2022-07-12T05:06:46;3.60;;;3.00;;
7573;SDS011;3828;48.922;9.116;2022-07-12T05:09:13;3.23;;;2.93;;
7573;SDS011;3828;48.922;9.116;2022-07-12T05:11:39;3.67;;;2.93;;
7573;SDS011;3828;48.922;9.116;2022-07-12T05:14:06;3.60;;;2.73;;
7573;SDS011;3828;48.922;9.116;2022-07-12T05:16:33;3.20;;;2.90;;
7573;SDS011;3828;48.922;9.116;2022-07-12T05:19:00;2.90;;;2.70;;
7573;SDS011;3828;48.922;9.116;2022-07-12T05:21:27;3.03;;;2.83;;
7573;SDS011;3828;48.922;9.116;2022-07-12T05:23:55;4.80;;;3.00;;
7573;SDS011;3828;48.922;9.116;2022-07-12T05:26:22;3.50;;;3.20;;
7573;SDS011;3828;48.922;9.116;2022-07-12T05:28:49;3.83;;;3.20;;
7573;SDS011;3828;48.922;9.116;2022-07-12T05:31:15;3.07;;;2.87;;
7573;SDS011;3828;48.922;9.116;2022-07-12T05:33:42;3.70;;;3.40;;
7573;SDS011;3828;48.922;9.116;2022-07-12T05:36:09;3.20;;;3.00;;
7573;SDS011;3828;48.922;9.116;2022-07-12T05:38:36;3.83;;;3.37;;
7573;SDS011;3828;48.922;9.116;2022-07-12T05:41:04;2.70;;;2.50;;
7573;SDS011;3828;48.922;9.116;2022-07-12T05:43:31;3.10;;;2.77;;
7573;SDS011;3828;48.922;9.116;2022-07-12T05:45:57;3.33;;;3.07;;
7573;SDS011;3828;48.922;9.116;2022-07-12T05:48:24;2.60;;;2.40;;
7573;SDS011;3828;48.922;9.116;2022-07-12T05:50:52;3.80;;;3.00;;
7573;SDS011;3828;48.922;9.116;2022-07-12T05:53:19;3.73;;;3.43;;
7573;SDS011;3828;48.922;9.116;2022-07-12T05:55:47;3.53;;;3.33;;
7573;SDS011;3828;48.922;9.116;2022-07-12T05:58:15;3.90;;;3.17;;
7573;SDS011;3828;48.922;9.116;2022-07-12T06:00:42;3.67;;;2.73;;
7573;SDS011;3828;48.922;9.116;2022-07-12T06:03:09;3.93;;;2.73;;
7573;SDS011;3828;48.922;9.116;2022-07-12T06:05:36;2.87;;;2.67;;
7573;SDS011;3828;48.922;9.116;2022-07-12T06:08:03;3.10;;;2.80;;
7573;SDS011;3828;48.922;9.116;2022-07-12T06:10:31;3.73;;;2.93;;
7573;SDS011;3828;48.922;9.116;2022-07-12T06:12:58;3.20;;;2.90;;
7573;SDS011;3828;48.922;9.116;2022-07-12T06:15:26;3.77;;;2.83;;
7573;SDS011;3828;48.922;9.116;2022-07-12T06:17:54;3.80;;;3.50;;
7573;SDS011;3828;48.922;9.116;2022-07-12T06:20:21;3.43;;;3.13;;
7573;SDS011;3828;48.922;9.116;2022-07-12T06:22:48;3.73;;;3.23;;
7573;SDS011;3828;48.922;9.116;2022-07-12T06:25:14;4.47;;;3.63;;
7573;SDS011;3828;48.922;9.116;2022-07-12T06:27:41;4.87;;;3.40;;
7573;SDS011;3828;48.922;9.116;2022-07-12T06:30:08;2.67;;;2.47;;
7573;SDS011;3828;48.922;9.116;2022-07-12T06:32:37;2.33;;;2.20;;
7573;SDS011;3828;48.922;9.116;2022-07-12T06:35:05;2.60;;;2.40;;
7573;SDS011;3828;48.922;9.116;2022-07-12T06:37:32;2.47;;;2.27;;
7573;SDS011;3828;48.922;9.116;2022-07-12T06:39:59;2.30;;;2.10;;
7573;SDS011;3828;48.922;9.116;2022-07-12T06:42:25;4.20;;;2.30;;
7573;SDS011;3828;48.922;9.116;2022-07-12T06:44:52;3.37;;;2.60;;
7573;SDS011;3828;48.922;9.116;2022-07-12T06:47:19;2.70;;;2.50;;
7573;SDS011;3828;48.922;9.116;2022-07-12T06:49:47;2.20;;;2.10;;
7573;SDS011;3828;48.922;9.116;2022-07-12T06:52:14;2.63;;;2.43;;
7573;SDS011;3828;48.922;9.116;2022-07-12T06:54:40;2.37;;;2.17;;
7573;SDS011;3828;48.922;9.116;2022-07-12T06:57:07;2.87;;;2.30;;
7573;SDS011;3828;48.922;9.116;2022-07-12T06:59:34;2.20;;;1.97;;
7573;SDS011;3828;48.922;9.116;2022-07-12T07:02:02;1.80;;;1.70;;
7573;SDS011;3828;48.922;9.116;2022-07-12T07:04:29;2.10;;;1.90;;
7573;SDS011;3828;48.922;9.116;2022-07-12T07:06:57;1.97;;;1.70;;
7573;SDS011;3828;48.922;9.116;2022-07-12T07:09:24;2.80;;;1.77;;
7573;SDS011;3828;48.922;9.116;2022-07-12T07:11:51;1.90;;;1.80;;
7573;SDS011;3828;48.922;9.116;2022-07-12T07:14:18;2.47;;;1.83;;
7573;SDS011;3828;48.922;9.116;2022-07-12T07:16:45;3.30;;;1.80;;
7573;SDS011;3828;48.922;9.116;2022-07-12T07:19:12;1.87;;;1.63;;
7573;SDS011;3828;48.922;9.116;2022-07-12T07:21:38;1.80;;;1.40;;
7573;SDS011;3828;48.922;9.116;2022-07-12T07:24:07;1.63;;;1.53;;
7573;SDS011;3828;48.922;9.116;2022-07-12T07:26:34;1.60;;;1.50;;
7573;SDS011;3828;48.922;9.116;2022-07-12T07:29:01;1.30;;;1.20;;
7573;SDS011;3828;48.922;9.116;2022-07-12T07:31:45;3.47;;;1.33;;
7573;SDS011;3828;48.922;9.116;2022-07-12T07:34:12;1.93;;;1.20;;
7573;SDS011;3828;48.922;9.116;2022-07-12T07:36:39;1.57;;;1.47;;
7573;SDS011;3828;48.922;9.116;2022-07-12T07:39:07;1.30;;;1.20;;
7573;SDS011;3828;48.922;9.116;2022-07-12T07:41:34;1.33;;;1.20;;
7573;SDS011;3828;48.922;9.116;2022-07-12T07:44:01;0.60;;;0.60;;
7573;SDS011;3828;48.922;9.116;2022-07-12T07:46:28;0.60;;;0.60;;
7573;SDS011;3828;48.922;9.116;2022-07-12T07:48:55;1.83;;;0.80;;
7573;SDS011;3828;48.922;9.116;2022-07-12T07:51:22;0.80;;;0.80;;
7573;SDS011;3828;48.922;9.116;2022-07-12T07:53:48;0.70;;;0.70;;
7573;SDS011;3828;48.922;9.116;2022-07-12T07:56:19;0.67;;;0.67;;
7573;SDS011;3828;48.922;9.116;2022-07-12T07:58:46;1.77;;;0.83;;
7573;SDS011;3828;48.922;9.116;2022-07-12T08:01:13;0.60;;;0.60;;
7573;SDS011;3828;48.922;9.116;2022-07-12T08:03:39;0.50;;;0.50;;
7573;SDS011;3828;48.922;9.116;2022-07-12T08:06:06;0.60;;;0.60;;
7573;SDS011;3828;48.922;9.116;2022-07-12T08:08:33;0.70;;;0.70;;
7573;SDS011;3828;48.922;9.116;2022-07-12T08:11:00;0.50;;;0.50;;
7573;SDS011;3828;48.922;9.116;2022-07-12T08:13:28;2.00;;;0.80;;
7573;SDS011;3828;48.922;9.116;2022-07-12T08:15:55;1.60;;;1.03;;
7573;SDS011;3828;48.922;9.116;2022-07-12T08:18:21;0.63;;;0.63;;
7573;SDS011;3828;48.922;9.116;2022-07-12T08:20:48;1.60;;;0.70;;
7573;SDS011;3828;48.922;9.116;2022-07-12T08:23:15;1.93;;;1.73;;
7573;SDS011;3828;48.922;9.116;2022-07-12T08:25:42;1.23;;;0.80;;
7573;SDS011;3828;48.922;9.116;2022-07-12T08:28:08;0.70;;;0.70;;
7573;SDS011;3828;48.922;9.116;2022-07-12T08:30:36;0.63;;;0.63;;
7573;SDS011;3828;48.922;9.116;2022-07-12T08:33:03;1.03;;;1.00;;
7573;SDS011;3828;48.922;9.116;2022-07-12T08:35:30;0.67;;;0.67;;
7573;SDS011;3828;48.922;9.116;2022-07-12T08:37:57;0.73;;;0.60;;
7573;SDS011;3828;48.922;9.116;2022-07-12T08:40:24;0.50;;;0.50;;
7573;SDS011;3828;48.922;9.116;2022-07-12T08:42:50;0.70;;;0.70;;
7573;SDS011;3828;48.922;9.116;2022-07-12T08:45:17;1.30;;;1.17;;
7573;SDS011;3828;48.922;9.116;2022-07-12T08:47:45;0.60;;;0.60;;
7573;SDS011;3828;48.922;9.116;2022-07-12T08:50:13;0.80;;;0.80;;
7573;SDS011;3828;48.922;9.116;2022-07-12T08:52:43;0.60;;;0.60;;
7573;SDS011;3828;48.922;9.116;2022-07-12T08:55:23;0.70;;;0.70;;
7573;SDS011;3828;48.922;9.116;2022-07-12T08:57:52;1.87;;;0.67;;
7573;SDS011;3828;48.922;9.116;2022-07-12T09:00:20;0.70;;;0.70;;
7573;SDS011;3828;48.922;9.116;2022-07-12T09:02:49;0.70;;;0.70;;
7573;SDS011;3828;48.922;9.116;2022-07-12T09:05:17;0.67;;;0.67;;
7573;SDS011;3828;48.922;9.116;2022-07-12T09:07:45;0.70;;;0.70;;
7573;SDS011;3828;48.922;9.116;2022-07-12T09:10:12;1.07;;;0.60;;
7573;SDS011;3828;48.922;9.116;2022-07-12T09:12:40;3.07;;;0.70;;
7573;SDS011;3828;48.922;9.116;2022-07-12T09:15:14;0.70;;;0.67;;
7573;SDS011;3828;48.922;9.116;2022-07-12T09:17:46;0.70;;;0.70;;
7573;SDS011;3828;48.922;9.116;2022-07-12T09:20:23;0.70;;;0.70;;
7573;SDS011;3828;48.922;9.116;2022-07-12T09:22:51;0.50;;;0.50;;
7573;SDS011;3828;48.922;9.116;2022-07-12T09:25:19;0.80;;;0.80;;
7573;SDS011;3828;48.922;9.116;2022-07-12T09:27:47;2.60;;;1.00;;
7573;SDS011;3828;48.922;9.116;2022-07-12T09:30:16;1.47;;;0.70;;
7573;SDS011;3828;48.922;9.116;2022-07-12T09:32:56;0.60;;;0.60;;
7573;SDS011;3828;48.922;9.116;2022-07-12T09:35:41;0.63;;;0.60;;
7573;SDS011;3828;48.922;9.116;2022-07-12T09:38:26;1.07;;;0.50;;
7573;SDS011;3828;48.922;9.116;2022-07-12T09:40:54;0.70;;;0.70;;
7573;SDS011;3828;48.922;9.116;2022-07-12T09:43:22;0.77;;;0.77;;
7573;SDS011;3828;48.922;9.116;2022-07-12T09:45:49;2.30;;;0.77;;
7573;SDS011;3828;48.922;9.116;2022-07-12T09:48:17;0.97;;;0.60;;
7573;SDS011;3828;48.922;9.116;2022-07-12T09:50:46;1.37;;;0.60;;
7573;SDS011;3828;48.922;9.116;2022-07-12T09:53:19;1.17;;;0.50;;
7573;SDS011;3828;48.922;9.116;2022-07-12T09:55:51;0.80;;;0.57;;
7573;SDS011;3828;48.922;9.116;2022-07-12T09:58:22;0.60;;;0.60;;
7573;SDS011;3828;48.922;9.116;2022-07-12T10:00:52;0.60;;;0.60;;
7573;SDS011;3828;48.922;9.116;2022-07-12T10:03:26;0.50;;;0.50;;
7573;SDS011;3828;48.922;9.116;2022-07-12T10:05:56;0.50;;;0.50;;
7573;SDS011;3828;48.922;9.116;2022-07-12T10:08:26;0.50;;;0.50;;
7573;SDS011;3828;48.922;9.116;2022-07-12T10:10:53;0.40;;;0.40;;
7573;SDS011;3828;48.922;9.116;2022-07-12T10:13:20;2.73;;;0.73;;
7573;SDS011;3828;48.922;9.116;2022-07-12T10:15:48;0.53;;;0.53;;
7573;SDS011;3828;48.922;9.116;2022-07-12T10:18:16;1.13;;;0.50;;
7573;SDS011;3828;48.922;9.116;2022-07-12T10:20:45;0.53;;;0.53;;
7573;SDS011;3828;48.922;9.116;2022-07-12T10:23:32;2.63;;;0.67;;
7573;SDS011;3828;48.922;9.116;2022-07-12T10:28:55;0.50;;;0.50;;
7573;SDS011;3828;48.922;9.116;2022-07-12T10:31:23;0.53;;;0.40;;
7573;SDS011;3828;48.922;9.116;2022-07-12T10:34:12;0.70;;;0.50;;
7573;SDS011;3828;48.922;9.116;2022-07-12T10:39:37;6.00;;;1.17;;
7573;SDS011;3828;48.922;9.116;2022-07-12T10:42:17;1.20;;;0.30;;
7573;SDS011;3828;48.922;9.116;2022-07-12T10:44:45;1.27;;;0.30;;
7573;SDS011;3828;48.922;9.116;2022-07-12T10:47:15;0.40;;;0.40;;
7573;SDS011;3828;48.922;9.116;2022-07-12T10:49:47;0.70;;;0.70;;
7573;SDS011;3828;48.922;9.116;2022-07-12T10:52:25;0.57;;;0.47;;
7573;SDS011;3828;48.922;9.116;2022-07-12T10:57:44;0.60;;;0.60;;
7573;SDS011;3828;48.922;9.116;2022-07-12T11:00:15;0.77;;;0.57;;
7573;SDS011;3828;48.922;9.116;2022-07-12T11:02:43;0.30;;;0.30;;
7573;SDS011;3828;48.922;9.116;2022-07-12T11:05:10;0.40;;;0.40;;
7573;SDS011;3828;48.922;9.116;2022-07-12T11:07:38;1.40;;;0.50;;
7573;SDS011;3828;48.922;9.116;2022-07-12T11:10:05;0.30;;;0.30;;
7573;SDS011;3828;48.922;9.116;2022-07-12T11:12:33;1.00;;;0.60;;
7573;SDS011;3828;48.922;9.116;2022-07-12T11:15:00;0.43;;;0.30;;
7573;SDS011;3828;48.922;9.116;2022-07-12T11:17:29;0.50;;;0.50;;
7573;SDS011;3828;48.922;9.116;2022-07-12T11:20:07;3.43;;;0.60;;
7573;SDS011;3828;48.922;9.116;2022-07-12T11:22:37;0.30;;;0.30;;
7573;SDS011;3828;48.922;9.116;2022-07-12T11:25:06;0.73;;;0.30;;
7573;SDS011;3828;48.922;9.116;2022-07-12T11:27:35;0.50;;;0.50;;
7573;SDS011;3828;48.922;9.116;2022-07-12T11:30:03;0.57;;;0.50;;
7573;SDS011;3828;48.922;9.116;2022-07-12T11:32:37;0.27;;;0.27;;
7573;SDS011;3828;48.922;9.116;2022-07-12T11:35:18;0.40;;;0.40;;
7573;SDS011;3828;48.922;9.116;2022-07-12T11:37:53;2.57;;;0.40;;
7573;SDS011;3828;48.922;9.116;2022-07-12T11:40:22;0.30;;;0.30;;
7573;SDS011;3828;48.922;9.116;2022-07-12T11:42:53;0.67;;;0.40;;
7573;SDS011;3828;48.922;9.116;2022-07-12T11:45:21;0.40;;;0.40;;
7573;SDS011;3828;48.922;9.116;2022-07-12T11:47:48;0.30;;;0.30;;
7573;SDS011;3828;48.922;9.116;2022-07-12T11:50:16;0.50;;;0.50;;
7573;SDS011;3828;48.922;9.116;2022-07-12T11:52:44;0.50;;;0.50;;
7573;SDS011;3828;48.922;9.116;2022-07-12T11:55:12;0.57;;;0.57;;
7573;SDS011;3828;48.922;9.116;2022-07-12T11:57:39;1.70;;;1.10;;
7573;SDS011;3828;48.922;9.116;2022-07-12T12:00:13;0.57;;;0.40;;
7573;SDS011;3828;48.922;9.116;2022-07-12T12:02:41;0.50;;;0.40;;
7573;SDS011;3828;48.922;9.116;2022-07-12T12:05:08;0.87;;;0.47;;
7573;SDS011;3828;48.922;9.116;2022-07-12T12:07:35;0.47;;;0.47;;
7573;SDS011;3828;48.922;9.116;2022-07-12T12:10:03;0.50;;;0.50;;
7573;SDS011;3828;48.922;9.116;2022-07-12T12:12:38;0.50;;;0.50;;
7573;SDS011;3828;48.922;9.116;2022-07-12T12:15:08;0.60;;;0.60;;
7573;SDS011;3828;48.922;9.116;2022-07-12T12:17:36;0.30;;;0.30;;
7573;SDS011;3828;48.922;9.116;2022-07-12T12:20:10;0.43;;;0.43;;
7573;SDS011;3828;48.922;9.116;2022-07-12T12:22:38;0.57;;;0.50;;
7573;SDS011;3828;48.922;9.116;2022-07-12T12:25:06;0.30;;;0.30;;
7573;SDS011;3828;48.922;9.116;2022-07-12T12:27:41;0.83;;;0.50;;
7573;SDS011;3828;48.922;9.116;2022-07-12T12:30:09;0.50;;;0.50;;
7573;SDS011;3828;48.922;9.116;2022-07-12T12:32:43;0.40;;;0.40;;
7573;SDS011;3828;48.922;9.116;2022-07-12T12:35:21;0.77;;;0.40;;
7573;SDS011;3828;48.922;9.116;2022-07-12T12:37:49;0.50;;;0.30;;
7573;SDS011;3828;48.922;9.116;2022-07-12T12:40:20;0.37;;;0.37;;
7573;SDS011;3828;48.922;9.116;2022-07-12T12:42:49;0.43;;;0.33;;
7573;SDS011;3828;48.922;9.116;2022-07-12T12:45:20;0.50;;;0.40;;
7573;SDS011;3828;48.922;9.116;2022-07-12T12:47:51;0.30;;;0.30;;
7573;SDS011;3828;48.922;9.116;2022-07-12T12:53:05;0.40;;;0.40;;
7573;SDS011;3828;48.922;9.116;2022-07-12T12:55:33;0.53;;;0.43;;
7573;SDS011;3828;48.922;9.116;2022-07-12T12:58:01;0.40;;;0.40;;
7573;SDS011;3828;48.922;9.116;2022-07-12T13:00:28;0.70;;;0.70;;
7573;SDS011;3828;48.922;9.116;2022-07-12T13:02:55;0.50;;;0.40;;
7573;SDS011;3828;48.922;9.116;2022-07-12T13:05:24;0.50;;;0.50;;
7573;SDS011;3828;48.922;9.116;2022-07-12T13:07:51;0.50;;;0.40;;
7573;SDS011;3828;48.922;9.116;2022-07-12T13:10:18;0.50;;;0.50;;
7573;SDS011;3828;48.922;9.116;2022-07-12T13:12:44;0.77;;;0.50;;
7573;SDS011;3828;48.922;9.116;2022-07-12T13:15:13;0.40;;;0.40;;
7573;SDS011;3828;48.922;9.116;2022-07-12T13:17:39;0.53;;;0.40;;
7573;SDS011;3828;48.922;9.116;2022-07-12T13:20:07;0.70;;;0.40;;
7573;SDS011;3828;48.922;9.116;2022-07-12T13:22:34;0.40;;;0.30;;
7573;SDS011;3828;48.922;9.116;2022-07-12T13:25:02;0.50;;;0.50;;
7573;SDS011;3828;48.922;9.116;2022-07-12T13:27:30;0.53;;;0.40;;
7573;SDS011;3828;48.922;9.116;2022-07-12T13:29:58;0.30;;;0.30;;
7573;SDS011;3828;48.922;9.116;2022-07-12T13:32:26;2.10;;;0.70;;
7573;SDS011;3828;48.922;9.116;2022-07-12T13:34:53;0.40;;;0.40;;
7573;SDS011;3828;48.922;9.116;2022-07-12T13:37:20;0.73;;;0.73;;
7573;SDS011;3828;48.922;9.116;2022-07-12T13:39:46;0.50;;;0.40;;
7573;SDS011;3828;48.922;9.116;2022-07-12T13:42:31;0.50;;;0.40;;
7573;SDS011;3828;48.922;9.116;2022-07-12T13:44:57;0.60;;;0.43;;
7573;SDS011;3828;48.922;9.116;2022-07-12T13:47:27;0.87;;;0.50;;
7573;SDS011;3828;48.922;9.116;2022-07-12T13:49:54;0.30;;;0.30;;
7573;SDS011;3828;48.922;9.116;2022-07-12T13:52:20;0.60;;;0.40;;
7573;SDS011;3828;48.922;9.116;2022-07-12T13:54:47;0.73;;;0.40;;
7573;SDS011;3828;48.922;9.116;2022-07-12T13:57:14;0.57;;;0.40;;
7573;SDS011;3828;48.922;9.116;2022-07-12T13:59:41;0.30;;;0.30;;
7573;SDS011;3828;48.922;9.116;2022-07-12T14:02:08;1.50;;;0.50;;
7573;SDS011;3828;48.922;9.116;2022-07-12T14:04:37;0.50;;;0.50;;
7573;SDS011;3828;48.922;9.116;2022-07-12T14:07:03;0.30;;;0.30;;
7573;SDS011;3828;48.922;9.116;2022-07-12T14:09:30;0.93;;;0.40;;
7573;SDS011;3828;48.922;9.116;2022-07-12T14:11:57;0.53;;;0.40;;
7573;SDS011;3828;48.922;9.116;2022-07-12T14:14:26;0.50;;;0.50;;
7573;SDS011;3828;48.922;9.116;2022-07-12T14:17:11;0.33;;;0.33;;
7573;SDS011;3828;48.922;9.116;2022-07-12T14:19:39;0.40;;;0.40;;
7573;SDS011;3828;48.922;9.116;2022-07-12T14:22:06;0.30;;;0.30;;
7573;SDS011;3828;48.922;9.116;2022-07-12T14:24:33;0.40;;;0.40;;
7573;SDS011;3828;48.922;9.116;2022-07-12T14:26:59;2.30;;;0.60;;
7573;SDS011;3828;48.922;9.116;2022-07-12T14:29:27;1.53;;;0.50;;
7573;SDS011;3828;48.922;9.116;2022-07-12T14:31:54;0.40;;;0.40;;
7573;SDS011;3828;48.922;9.116;2022-07-12T14:34:22;0.50;;;0.50;;
7573;SDS011;3828;48.922;9.116;2022-07-12T14:36:51;1.07;;;0.30;;
7573;SDS011;3828;48.922;9.116;2022-07-12T14:39:18;0.60;;;0.50;;
7573;SDS011;3828;48.922;9.116;2022-07-12T14:41:46;0.50;;;0.50;;
7573;SDS011;3828;48.922;9.116;2022-07-12T14:44:13;1.40;;;0.33;;
7573;SDS011;3828;48.922;9.116;2022-07-12T14:46:39;0.87;;;0.80;;
7573;SDS011;3828;48.922;9.116;2022-07-12T14:49:06;0.47;;;0.30;;
7573;SDS011;3828;48.922;9.116;2022-07-12T14:51:33;0.87;;;0.50;;
7573;SDS011;3828;48.922;9.116;2022-07-12T14:54:01;0.70;;;0.50;;
7573;SDS011;3828;48.922;9.116;2022-07-12T14:56:28;0.47;;;0.47;;
7573;SDS011;3828;48.922;9.116;2022-07-12T14:58:55;1.30;;;0.97;;
7573;SDS011;3828;48.922;9.116;2022-07-12T15:01:21;0.57;;;0.57;;
7573;SDS011;3828;48.922;9.116;2022-07-12T15:03:48;0.60;;;0.57;;
7573;SDS011;3828;48.922;9.116;2022-07-12T15:06:15;1.90;;;0.80;;
7573;SDS011;3828;48.922;9.116;2022-07-12T15:08:41;1.13;;;0.90;;
7573;SDS011;3828;48.922;9.116;2022-07-12T15:11:09;0.57;;;0.40;;
7573;SDS011;3828;48.922;9.116;2022-07-12T15:13:37;0.63;;;0.57;;
7573;SDS011;3828;48.922;9.116;2022-07-12T15:16:04;2.27;;;0.40;;
7573;SDS011;3828;48.922;9.116;2022-07-12T15:18:31;0.40;;;0.40;;
7573;SDS011;3828;48.922;9.116;2022-07-12T15:20:58;0.50;;;0.50;;
7573;SDS011;3828;48.922;9.116;2022-07-12T15:23:25;0.40;;;0.40;;
7573;SDS011;3828;48.922;9.116;2022-07-12T15:25:52;0.40;;;0.40;;
7573;SDS011;3828;48.922;9.116;2022-07-12T15:28:21;0.60;;;0.50;;
7573;SDS011;3828;48.922;9.116;2022-07-12T15:30:48;0.60;;;0.60;;
7573;SDS011;3828;48.922;9.116;2022-07-12T15:33:15;0.50;;;0.50;;